sensor_id;sensor_type;location;lat;lon;timestamp;pressure;altitude;pressure_sealevel;temperature;humidity
51585;BME280;37669;50.312;18.670;2022-12-05T05:12:47;49535.81;;;-145.86;95.27
51585;BME280;37669;50.312;18.670;2022-12-05T05:15:14;49559.56;;;-145.86;95.30
51585;BME280;37669;50.312;18.670;2022-12-05T05:17:41;49523.91;;;-145.86;95.29
51585;BME280;37669;50.312;18.670;2022-12-05T05:20:09;49531.84;;;-145.86;95.12
51585;BME280;37669;50.312;18.670;2022-12-05T05:22:52;49535.81;;;-145.86;95.18
51585;BME280;37669;50.312;18.670;2022-12-05T05:25:20;49557.59;;;-145.86;95.20
51585;BME280;37669;50.312;18.670;2022-12-05T05:27:50;49561.56;;;-145.86;94.98
51585;BME280;37669;50.312;18.670;2022-12-05T05:30:17;49557.59;;;-145.86;95.02
51585;BME280;37669;50.312;18.670;2022-12-05T05:32:45;49545.72;;;-145.86;95.08
51585;BME280;37669;50.312;18.670;2022-12-05T05:35:13;49545.72;;;-145.86;94.98
51585;BME280;37669;50.312;18.670;2022-12-05T05:37:41;49555.59;;;-145.86;95.11
51585;BME280;37669;50.312;18.670;2022-12-05T05:40:10;49567.50;;;-145.86;95.14
51585;BME280;37669;50.312;18.670;2022-12-05T05:42:41;49555.59;;;-145.86;95.06
51585;BME280;37669;50.312;18.670;2022-12-05T05:45:10;49500.16;;;-145.86;95.08
51585;BME280;37669;50.312;18.670;2022-12-05T05:47:38;49512.03;;;-145.86;95.30
51585;BME280;37669;50.312;18.670;2022-12-05T05:50:06;49496.19;;;-145.86;95.55
51585;BME280;37669;50.312;18.670;2022-12-05T05:52:34;49543.72;;;-145.86;95.31
51585;BME280;37669;50.312;18.670;2022-12-05T05:55:03;49553.63;;;-145.86;95.44
51585;BME280;37669;50.312;18.670;2022-12-05T05:57:31;49539.75;;;-145.86;95.48
51585;BME280;37669;50.312;18.670;2022-12-05T05:59:58;49553.63;;;-145.86;95.71
51585;BME280;37669;50.312;18.670;2022-12-05T06:02:30;49575.41;;;-145.86;95.77
51585;BME280;37669;50.312;18.670;2022-12-05T06:04:57;49567.50;;;-145.86;95.71
51585;BME280;37669;50.312;18.670;2022-12-05T06:07:25;49545.72;;;-145.86;95.62
51585;BME280;37669;50.312;18.670;2022-12-05T06:09:52;49541.75;;;-145.86;95.67
51585;BME280;37669;50.312;18.670;2022-12-05T06:12:20;49573.44;;;-145.86;95.86
51585;BME280;37669;50.312;18.670;2022-12-05T06:14:47;49547.69;;;-145.86;95.75
51585;BME280;37669;50.312;18.670;2022-12-05T06:17:14;49563.53;;;-145.86;96.22
51585;BME280;37669;50.312;18.670;2022-12-05T06:19:43;49571.44;;;-145.86;95.89
51585;BME280;37669;50.312;18.670;2022-12-05T06:22:10;49541.75;;;-145.86;96.30
51585;BME280;37669;50.312;18.670;2022-12-05T06:24:37;49543.72;;;-145.86;96.40
51585;BME280;37669;50.312;18.670;2022-12-05T06:27:04;49543.72;;;-145.86;96.37
51585;BME280;37669;50.312;18.670;2022-12-05T06:29:32;49549.66;;;-145.86;96.38
51585;BME280;37669;50.312;18.670;2022-12-05T06:31:59;49563.53;;;-145.86;96.42
51585;BME280;37669;50.312;18.670;2022-12-05T06:34:26;49577.41;;;-145.86;96.53
51585;BME280;37669;50.312;18.670;2022-12-05T06:36:55;49533.81;;;-145.86;96.73
51585;BME280;37669;50.312;18.670;2022-12-05T06:39:22;49547.69;;;-145.86;96.82
51585;BME280;37669;50.312;18.670;2022-12-05T06:41:49;49547.69;;;-145.86;96.56
51585;BME280;37669;50.312;18.670;2022-12-05T06:44:16;49573.44;;;-145.86;96.62
51585;BME280;37669;50.312;18.670;2022-12-05T06:46:43;49569.47;;;-145.86;96.61
51585;BME280;37669;50.312;18.670;2022-12-05T06:49:10;49605.13;;;-145.86;96.93
51585;BME280;37669;50.312;18.670;2022-12-05T06:51:37;49579.38;;;-145.86;96.88
51585;BME280;37669;50.312;18.670;2022-12-05T06:54:05;49523.91;;;-145.86;97.09
51585;BME280;37669;50.312;18.670;2022-12-05T06:56:32;49591.25;;;-145.86;96.77
51585;BME280;37669;50.312;18.670;2022-12-05T06:58:59;49599.19;;;-145.86;96.73
51585;BME280;37669;50.312;18.670;2022-12-05T07:01:26;49541.75;;;-145.86;96.63
51585;BME280;37669;50.312;18.670;2022-12-05T07:04:09;49575.41;;;-145.86;96.85
51585;BME280;37669;50.312;18.670;2022-12-05T07:06:37;49581.34;;;-145.86;96.95
51585;BME280;37669;50.312;18.670;2022-12-05T07:09:06;49609.09;;;-145.86;96.74
51585;BME280;37669;50.312;18.670;2022-12-05T07:11:33;49559.56;;;-145.86;97.07
51585;BME280;37669;50.312;18.670;2022-12-05T07:14:01;49603.13;;;-145.86;97.11
51585;BME280;37669;50.312;18.670;2022-12-05T07:16:28;49551.66;;;-145.86;97.01
51585;BME280;37669;50.312;18.670;2022-12-05T07:18:56;49569.47;;;-145.86;96.85
51585;BME280;37669;50.312;18.670;2022-12-05T07:21:23;49575.41;;;-145.86;96.81
51585;BME280;37669;50.312;18.670;2022-12-05T07:23:50;49611.06;;;-145.86;96.84
51585;BME280;37669;50.312;18.670;2022-12-05T07:26:21;49585.31;;;-145.86;96.76
51585;BME280;37669;50.312;18.670;2022-12-05T07:28:49;49571.44;;;-145.86;96.98
51585;BME280;37669;50.312;18.670;2022-12-05T07:31:18;49607.09;;;-145.86;96.80
51585;BME280;37669;50.312;18.670;2022-12-05T07:33:46;49595.22;;;-145.86;96.81
51585;BME280;37669;50.312;18.670;2022-12-05T07:36:16;49613.03;;;-145.86;96.83
51585;BME280;37669;50.312;18.670;2022-12-05T07:38:43;49599.19;;;-145.86;96.85
51585;BME280;37669;50.312;18.670;2022-12-05T07:41:14;49557.59;;;-145.86;96.62
51585;BME280;37669;50.312;18.670;2022-12-05T07:43:45;49601.16;;;-145.86;96.63
51585;BME280;37669;50.312;18.670;2022-12-05T07:46:12;49575.41;;;-145.86;96.67
51585;BME280;37669;50.312;18.670;2022-12-05T07:48:39;49607.09;;;-145.86;96.69
51585;BME280;37669;50.312;18.670;2022-12-05T07:51:08;49575.41;;;-145.86;96.43
51585;BME280;37669;50.312;18.670;2022-12-05T07:53:36;49646.72;;;-145.86;96.41
51585;BME280;37669;50.312;18.670;2022-12-05T07:56:05;49618.97;;;-145.86;96.25
51585;BME280;37669;50.312;18.670;2022-12-05T07:58:33;49617.00;;;-145.86;96.05
51585;BME280;37669;50.312;18.670;2022-12-05T08:01:07;49615.03;;;-145.86;95.86
51585;BME280;37669;50.312;18.670;2022-12-05T08:03:34;49605.13;;;-145.86;95.77
51585;BME280;37669;50.312;18.670;2022-12-05T08:06:02;49577.41;;;-145.86;95.89
51585;BME280;37669;50.312;18.670;2022-12-05T08:08:29;49638.78;;;-145.86;95.80
51585;BME280;37669;50.312;18.670;2022-12-05T08:11:01;49585.31;;;-145.86;95.74
51585;BME280;37669;50.312;18.670;2022-12-05T08:13:28;49642.75;;;-145.86;95.25
51585;BME280;37669;50.312;18.670;2022-12-05T08:15:59;49634.81;;;-145.86;94.99
51585;BME280;37669;50.312;18.670;2022-12-05T08:18:28;49652.66;;;-145.86;94.79
51585;BME280;37669;50.312;18.670;2022-12-05T08:21:00;49615.03;;;-145.86;94.71
51585;BME280;37669;50.312;18.670;2022-12-05T08:23:28;49626.91;;;-145.86;94.50
51585;BME280;37669;50.312;18.670;2022-12-05T08:25:55;49630.88;;;-145.86;94.41
51585;BME280;37669;50.312;18.670;2022-12-05T08:28:22;49613.03;;;-145.86;94.36
51585;BME280;37669;50.312;18.670;2022-12-05T08:30:49;49620.97;;;-145.86;94.31
51585;BME280;37669;50.312;18.670;2022-12-05T08:33:16;49571.44;;;-145.86;94.31
51585;BME280;37669;50.312;18.670;2022-12-05T08:35:44;49579.38;;;-145.86;94.11
51585;BME280;37669;50.312;18.670;2022-12-05T08:38:11;49603.13;;;-145.86;94.20
51585;BME280;37669;50.312;18.670;2022-12-05T08:40:38;49615.03;;;-145.86;94.13
51585;BME280;37669;50.312;18.670;2022-12-05T08:43:05;49567.50;;;-145.86;94.23
51585;BME280;37669;50.312;18.670;2022-12-05T08:45:32;49595.22;;;-145.86;93.85
51585;BME280;37669;50.312;18.670;2022-12-05T08:47:59;49607.09;;;-145.86;93.32
51585;BME280;37669;50.312;18.670;2022-12-05T08:50:27;49551.66;;;-145.86;93.05
51585;BME280;37669;50.312;18.670;2022-12-05T08:52:55;49597.19;;;-145.86;93.01
51585;BME280;37669;50.312;18.670;2022-12-05T08:55:22;49605.13;;;-145.86;93.02
51585;BME280;37669;50.312;18.670;2022-12-05T08:57:49;49601.16;;;-145.86;92.46
51585;BME280;37669;50.312;18.670;2022-12-05T09:00:17;49613.03;;;-145.86;92.17
51585;BME280;37669;50.312;18.670;2022-12-05T09:02:48;49579.38;;;-145.86;91.87
51585;BME280;37669;50.312;18.670;2022-12-05T09:05:16;49579.38;;;-145.86;90.88
51585;BME280;37669;50.312;18.670;2022-12-05T09:07:43;49579.38;;;-145.86;90.17
51585;BME280;37669;50.312;18.670;2022-12-05T09:10:11;49573.44;;;-145.86;89.73
51585;BME280;37669;50.312;18.670;2022-12-05T09:12:39;49591.25;;;-145.86;89.85
51585;BME280;37669;50.312;18.670;2022-12-05T09:15:07;49551.66;;;-145.86;89.23
51585;BME280;37669;50.312;18.670;2022-12-05T09:17:35;49555.59;;;-145.86;89.34
51585;BME280;37669;50.312;18.670;2022-12-05T09:20:03;49508.06;;;-145.86;89.46
51585;BME280;37669;50.312;18.670;2022-12-05T09:22:30;49519.97;;;-145.86;89.41
51585;BME280;37669;50.312;18.670;2022-12-05T09:24:58;49541.75;;;-145.86;89.67
51585;BME280;37669;50.312;18.670;2022-12-05T09:27:27;49559.56;;;-145.86;89.92
51585;BME280;37669;50.312;18.670;2022-12-05T09:29:54;49537.78;;;-145.86;89.84
51585;BME280;37669;50.312;18.670;2022-12-05T09:32:21;49519.97;;;-145.86;89.83
51585;BME280;37669;50.312;18.670;2022-12-05T09:34:48;49539.75;;;-145.86;89.76
51585;BME280;37669;50.312;18.670;2022-12-05T09:37:15;49529.88;;;-145.86;90.20
51585;BME280;37669;50.312;18.670;2022-12-05T09:39:43;49557.59;;;-145.86;90.15
51585;BME280;37669;50.312;18.670;2022-12-05T09:42:37;49567.50;;;-145.86;89.97
51585;BME280;37669;50.312;18.670;2022-12-05T09:45:25;49559.56;;;-145.86;90.59
51585;BME280;37669;50.312;18.670;2022-12-05T09:47:58;49523.91;;;-145.86;90.30
51585;BME280;37669;50.312;18.670;2022-12-05T09:50:29;49555.59;;;-145.86;89.88
51585;BME280;37669;50.312;18.670;2022-12-05T09:53:04;49571.44;;;-145.86;89.99
51585;BME280;37669;50.312;18.670;2022-12-05T09:55:41;49523.91;;;-145.86;89.81
51585;BME280;37669;50.312;18.670;2022-12-05T09:58:21;49561.56;;;-145.86;89.80
51585;BME280;37669;50.312;18.670;2022-12-05T10:00:56;49559.56;;;-145.86;90.14
51585;BME280;37669;50.312;18.670;2022-12-05T10:03:28;49569.47;;;-145.86;89.42
51585;BME280;37669;50.312;18.670;2022-12-05T10:06:12;49553.63;;;-145.86;89.46
51585;BME280;37669;50.312;18.670;2022-12-05T10:08:54;49563.53;;;-145.86;88.89
51585;BME280;37669;50.312;18.670;2022-12-05T10:11:27;49516.00;;;-145.86;88.64
51585;BME280;37669;50.312;18.670;2022-12-05T10:14:06;49555.59;;;-145.86;89.15
51585;BME280;37669;50.312;18.670;2022-12-05T10:16:37;49559.56;;;-145.86;88.90
51585;BME280;37669;50.312;18.670;2022-12-05T10:19:11;49555.59;;;-145.86;89.04
51585;BME280;37669;50.312;18.670;2022-12-05T10:21:47;49543.72;;;-145.86;88.89
51585;BME280;37669;50.312;18.670;2022-12-05T10:24:19;49543.72;;;-145.86;88.29
51585;BME280;37669;50.312;18.670;2022-12-05T10:26:54;49575.41;;;-145.86;87.89
51585;BME280;37669;50.312;18.670;2022-12-05T10:29:27;49504.13;;;-145.86;87.87
51585;BME280;37669;50.312;18.670;2022-12-05T10:32:03;49531.84;;;-145.86;87.89
51585;BME280;37669;50.312;18.670;2022-12-05T10:34:33;49527.88;;;-145.86;88.36
51585;BME280;37669;50.312;18.670;2022-12-05T10:37:09;49517.97;;;-145.86;88.26
51585;BME280;37669;50.312;18.670;2022-12-05T10:39:37;49523.91;;;-145.86;87.86
51585;BME280;37669;50.312;18.670;2022-12-05T10:42:05;49541.75;;;-145.86;88.44
51585;BME280;37669;50.312;18.670;2022-12-05T10:44:35;49559.56;;;-145.86;88.21
51585;BME280;37669;50.312;18.670;2022-12-05T10:47:04;49559.56;;;-145.86;88.39
51585;BME280;37669;50.312;18.670;2022-12-05T10:49:38;49531.84;;;-145.86;88.42
51585;BME280;37669;50.312;18.670;2022-12-05T10:52:12;49500.16;;;-145.86;87.90
51585;BME280;37669;50.312;18.670;2022-12-05T10:54:48;49563.53;;;-145.86;88.52
51585;BME280;37669;50.312;18.670;2022-12-05T10:57:21;49521.94;;;-145.86;88.76
51585;BME280;37669;50.312;18.670;2022-12-05T11:00:09;49527.88;;;-145.86;88.58
51585;BME280;37669;50.312;18.670;2022-12-05T11:02:41;49561.56;;;-145.86;88.54
51585;BME280;37669;50.312;18.670;2022-12-05T11:05:15;49547.69;;;-145.86;88.81
51585;BME280;37669;50.312;18.670;2022-12-05T11:07:48;49541.75;;;-145.86;88.30
51585;BME280;37669;50.312;18.670;2022-12-05T11:10:20;49523.91;;;-145.86;88.18
51585;BME280;37669;50.312;18.670;2022-12-05T11:12:48;49529.88;;;-145.86;88.27
51585;BME280;37669;50.312;18.670;2022-12-05T11:15:22;49557.59;;;-145.86;88.26
51585;BME280;37669;50.312;18.670;2022-12-05T11:17:51;49565.50;;;-145.86;88.34
51585;BME280;37669;50.312;18.670;2022-12-05T11:20:37;49541.75;;;-145.86;88.35
51585;BME280;37669;50.312;18.670;2022-12-05T11:23:25;49577.41;;;-145.86;88.02
51585;BME280;37669;50.312;18.670;2022-12-05T11:25:53;49557.59;;;-145.86;87.50
51585;BME280;37669;50.312;18.670;2022-12-05T11:28:32;49543.72;;;-145.86;88.01
51585;BME280;37669;50.312;18.670;2022-12-05T11:31:03;49583.34;;;-145.86;88.09
51585;BME280;37669;50.312;18.670;2022-12-05T11:33:31;49565.50;;;-145.86;88.05
51585;BME280;37669;50.312;18.670;2022-12-05T11:36:04;49537.78;;;-145.86;87.90
51585;BME280;37669;50.312;18.670;2022-12-05T11:38:33;49557.59;;;-145.86;87.93
51585;BME280;37669;50.312;18.670;2022-12-05T11:41:16;49565.50;;;-145.86;88.11
51585;BME280;37669;50.312;18.670;2022-12-05T11:44:11;49581.34;;;-145.86;87.92
51585;BME280;37669;50.312;18.670;2022-12-05T11:46:53;49591.25;;;-145.86;87.76
51585;BME280;37669;50.312;18.670;2022-12-05T11:49:39;49591.25;;;-145.86;87.94
51585;BME280;37669;50.312;18.670;2022-12-05T12:04:46;49571.44;;;-145.86;87.71
51585;BME280;37669;50.312;18.670;2022-12-05T12:07:24;49587.28;;;-145.86;87.95
51585;BME280;37669;50.312;18.670;2022-12-05T12:10:05;49575.41;;;-145.86;87.62
51585;BME280;37669;50.312;18.670;2022-12-05T12:12:40;49585.31;;;-145.86;87.80
51585;BME280;37669;50.312;18.670;2022-12-05T12:15:26;49531.84;;;-145.86;88.10
51585;BME280;37669;50.312;18.670;2022-12-05T12:18:01;49567.50;;;-145.86;87.89
51585;BME280;37669;50.312;18.670;2022-12-05T12:20:43;49563.53;;;-145.86;87.89
51585;BME280;37669;50.312;18.670;2022-12-05T12:23:23;49523.91;;;-145.86;87.84
51585;BME280;37669;50.312;18.670;2022-12-05T12:26:03;49555.59;;;-145.86;87.48
51585;BME280;37669;50.312;18.670;2022-12-05T12:28:38;49563.53;;;-145.86;87.89
51585;BME280;37669;50.312;18.670;2022-12-05T12:31:29;49581.34;;;-145.86;87.47
51585;BME280;37669;50.312;18.670;2022-12-05T12:34:04;49557.59;;;-145.86;87.46
51585;BME280;37669;50.312;18.670;2022-12-05T12:36:44;49561.56;;;-145.86;86.98
51585;BME280;37669;50.312;18.670;2022-12-05T12:39:25;49557.59;;;-145.86;87.45
51585;BME280;37669;50.312;18.670;2022-12-05T12:42:17;49583.34;;;-145.86;87.12
51585;BME280;37669;50.312;18.670;2022-12-05T12:45:17;49567.50;;;-145.86;87.71
51585;BME280;37669;50.312;18.670;2022-12-05T12:48:00;49581.34;;;-145.86;87.19
51585;BME280;37669;50.312;18.670;2022-12-05T12:50:32;49553.63;;;-145.86;87.16
51585;BME280;37669;50.312;18.670;2022-12-05T12:55:58;49547.69;;;-145.86;86.69
51585;BME280;37669;50.312;18.670;2022-12-05T12:58:38;49613.03;;;-145.86;86.61
51585;BME280;37669;50.312;18.670;2022-12-05T13:01:12;49565.50;;;-145.86;86.60
51585;BME280;37669;50.312;18.670;2022-12-05T13:03:43;49577.41;;;-145.86;86.66
51585;BME280;37669;50.312;18.670;2022-12-05T13:06:17;49579.38;;;-145.86;86.64
51585;BME280;37669;50.312;18.670;2022-12-05T13:08:52;49615.03;;;-145.86;86.79
51585;BME280;37669;50.312;18.670;2022-12-05T13:11:21;49567.50;;;-145.86;86.58
51585;BME280;37669;50.312;18.670;2022-12-05T13:13:51;49609.09;;;-145.86;86.79
51585;BME280;37669;50.312;18.670;2022-12-05T13:16:24;49571.44;;;-145.86;86.84
51585;BME280;37669;50.312;18.670;2022-12-05T13:18:54;49579.38;;;-145.86;86.56
51585;BME280;37669;50.312;18.670;2022-12-05T13:21:22;49626.91;;;-145.86;86.97
51585;BME280;37669;50.312;18.670;2022-12-05T13:23:54;49581.34;;;-145.86;85.88
51585;BME280;37669;50.312;18.670;2022-12-05T13:26:24;49579.38;;;-145.86;86.29
51585;BME280;37669;50.312;18.670;2022-12-05T13:28:52;49563.53;;;-145.86;86.21
51585;BME280;37669;50.312;18.670;2022-12-05T13:31:34;49535.81;;;-145.86;85.64
51585;BME280;37669;50.312;18.670;2022-12-05T13:34:02;49555.59;;;-145.86;85.80
51585;BME280;37669;50.312;18.670;2022-12-05T13:36:37;49549.66;;;-145.86;86.02
51585;BME280;37669;50.312;18.670;2022-12-05T13:39:24;49557.59;;;-145.86;86.17
51585;BME280;37669;50.312;18.670;2022-12-05T13:42:20;49565.50;;;-145.86;85.82
51585;BME280;37669;50.312;18.670;2022-12-05T13:44:50;49591.25;;;-145.86;85.72
51585;BME280;37669;50.312;18.670;2022-12-05T13:47:28;49567.50;;;-145.86;85.67
51585;BME280;37669;50.312;18.670;2022-12-05T13:50:04;49563.53;;;-145.86;85.59
51585;BME280;37669;50.312;18.670;2022-12-05T13:52:38;49571.44;;;-145.86;86.06
51585;BME280;37669;50.312;18.670;2022-12-05T13:55:19;49595.22;;;-145.86;85.85
51585;BME280;37669;50.312;18.670;2022-12-05T13:57:52;49575.41;;;-145.86;86.00
51585;BME280;37669;50.312;18.670;2022-12-05T14:00:28;49569.47;;;-145.86;85.77
51585;BME280;37669;50.312;18.670;2022-12-05T14:03:04;49559.56;;;-145.86;86.09
51585;BME280;37669;50.312;18.670;2022-12-05T15:02:31;49581.34;;;-145.86;87.77
51585;BME280;37669;50.312;18.670;2022-12-05T15:05:04;49599.19;;;-145.86;87.39
51585;BME280;37669;50.312;18.670;2022-12-05T15:07:40;49601.16;;;-145.86;87.55
51585;BME280;37669;50.312;18.670;2022-12-05T15:10:14;49571.44;;;-145.86;87.52
51585;BME280;37669;50.312;18.670;2022-12-05T15:12:46;49599.19;;;-145.86;87.66
51585;BME280;37669;50.312;18.670;2022-12-05T15:15:16;49617.00;;;-145.86;88.08
51585;BME280;37669;50.312;18.670;2022-12-05T15:17:51;49611.06;;;-145.86;88.13
51585;BME280;37669;50.312;18.670;2022-12-05T15:20:26;49618.97;;;-145.86;87.74
51585;BME280;37669;50.312;18.670;2022-12-05T15:22:58;49626.91;;;-145.86;87.79
51585;BME280;37669;50.312;18.670;2022-12-05T15:25:28;49577.41;;;-145.86;87.62
51585;BME280;37669;50.312;18.670;2022-12-05T15:28:02;49591.25;;;-145.86;87.75
51585;BME280;37669;50.312;18.670;2022-12-05T15:30:30;49583.34;;;-145.86;88.23
51585;BME280;37669;50.312;18.670;2022-12-05T15:33:00;49581.34;;;-145.86;88.01
51585;BME280;37669;50.312;18.670;2022-12-05T15:35:30;49603.13;;;-145.86;88.06
51585;BME280;37669;50.312;18.670;2022-12-05T15:38:01;49579.38;;;-145.86;88.18
51585;BME280;37669;50.312;18.670;2022-12-05T15:40:33;49617.00;;;-145.86;88.10
51585;BME280;37669;50.312;18.670;2022-12-05T15:43:26;49575.41;;;-145.86;88.27
51585;BME280;37669;50.312;18.670;2022-12-05T15:48:51;49579.38;;;-145.86;88.42
51585;BME280;37669;50.312;18.670;2022-12-05T15:51:19;49626.91;;;-145.86;88.16
51585;BME280;37669;50.312;18.670;2022-12-05T15:53:50;49628.88;;;-145.86;88.13
51585;BME280;37669;50.312;18.670;2022-12-05T15:56:20;49624.94;;;-145.86;87.93
51585;BME280;37669;50.312;18.670;2022-12-05T15:58:53;49611.06;;;-145.86;88.47
51585;BME280;37669;50.312;18.670;2022-12-05T16:01:26;49648.69;;;-145.86;88.46
51585;BME280;37669;50.312;18.670;2022-12-05T16:03:59;49668.50;;;-145.86;88.31
51585;BME280;37669;50.312;18.670;2022-12-05T16:06:31;49630.88;;;-145.86;88.75
51585;BME280;37669;50.312;18.670;2022-12-05T16:09:04;49640.78;;;-145.86;88.90
51585;BME280;37669;50.312;18.670;2022-12-05T16:11:32;49615.03;;;-145.86;88.55
51585;BME280;37669;50.312;18.670;2022-12-05T16:14:02;49597.19;;;-145.86;88.99
51585;BME280;37669;50.312;18.670;2022-12-05T16:16:33;49636.81;;;-145.86;89.10
51585;BME280;37669;50.312;18.670;2022-12-05T16:19:05;49626.91;;;-145.86;89.06
51585;BME280;37669;50.312;18.670;2022-12-05T16:21:35;49630.88;;;-145.86;89.07
51585;BME280;37669;50.312;18.670;2022-12-05T16:24:06;49624.94;;;-145.86;89.01
51585;BME280;37669;50.312;18.670;2022-12-05T16:26:37;49622.94;;;-145.86;88.78
51585;BME280;37669;50.312;18.670;2022-12-05T16:29:06;49624.94;;;-145.86;88.79
51585;BME280;37669;50.312;18.670;2022-12-05T16:31:53;49607.09;;;-145.86;88.89
51585;BME280;37669;50.312;18.670;2022-12-05T16:34:23;49654.63;;;-145.86;89.09
51585;BME280;37669;50.312;18.670;2022-12-05T16:36:53;49640.78;;;-145.86;89.19
51585;BME280;37669;50.312;18.670;2022-12-05T16:39:25;49650.66;;;-145.86;89.14
51585;BME280;37669;50.312;18.670;2022-12-05T16:41:54;49622.94;;;-145.86;89.16
51585;BME280;37669;50.312;18.670;2022-12-05T16:47:51;49638.78;;;-145.86;89.22
51585;BME280;37669;50.312;18.670;2022-12-05T16:50:30;49636.81;;;-145.86;89.42
51585;BME280;37669;50.312;18.670;2022-12-05T16:53:02;49642.75;;;-145.86;89.34
51585;BME280;37669;50.312;18.670;2022-12-05T16:55:30;49617.00;;;-145.86;89.17
51585;BME280;37669;50.312;18.670;2022-12-05T16:58:01;49626.91;;;-145.86;89.59
51585;BME280;37669;50.312;18.670;2022-12-05T17:29:33;49670.47;;;-145.86;89.09
51585;BME280;37669;50.312;18.670;2022-12-05T17:32:00;49638.78;;;-145.86;89.15
51585;BME280;37669;50.312;18.670;2022-12-05T17:34:27;49617.00;;;-145.86;88.93
51585;BME280;37669;50.312;18.670;2022-12-05T17:36:55;49660.56;;;-145.86;89.27
51585;BME280;37669;50.312;18.670;2022-12-05T17:39:22;49650.66;;;-145.86;89.42
51585;BME280;37669;50.312;18.670;2022-12-05T17:41:49;49654.63;;;-145.86;89.20
51585;BME280;37669;50.312;18.670;2022-12-05T17:44:16;49634.81;;;-145.86;89.12
51585;BME280;37669;50.312;18.670;2022-12-05T17:46:44;49644.72;;;-145.86;89.10
51585;BME280;37669;50.312;18.670;2022-12-05T17:49:12;49650.66;;;-145.86;89.14
51585;BME280;37669;50.312;18.670;2022-12-05T17:51:40;49662.56;;;-145.86;89.44
51585;BME280;37669;50.312;18.670;2022-12-05T17:54:07;49617.00;;;-145.86;89.10
51585;BME280;37669;50.312;18.670;2022-12-05T17:56:34;49652.66;;;-145.86;89.07
51585;BME280;37669;50.312;18.670;2022-12-05T17:59:01;49682.34;;;-145.86;89.09
51585;BME280;37669;50.312;18.670;2022-12-05T18:01:28;49672.47;;;-145.86;89.54
51585;BME280;37669;50.312;18.670;2022-12-05T18:03:57;49670.47;;;-145.86;89.26
51585;BME280;37669;50.312;18.670;2022-12-05T18:06:24;49638.78;;;-145.86;89.53
51585;BME280;37669;50.312;18.670;2022-12-05T18:08:53;49632.84;;;-145.86;89.45
51585;BME280;37669;50.312;18.670;2022-12-05T18:11:20;49678.41;;;-145.86;89.07
51585;BME280;37669;50.312;18.670;2022-12-05T18:13:47;49626.91;;;-145.86;89.12
51585;BME280;37669;50.312;18.670;2022-12-05T18:16:14;49654.63;;;-145.86;89.30
51585;BME280;37669;50.312;18.670;2022-12-05T18:18:42;49650.66;;;-145.86;89.59
51585;BME280;37669;50.312;18.670;2022-12-05T18:21:11;49646.72;;;-145.86;89.74
51585;BME280;37669;50.312;18.670;2022-12-05T18:23:39;49634.81;;;-145.86;89.73
51585;BME280;37669;50.312;18.670;2022-12-05T18:26:07;49650.66;;;-145.86;89.38
51585;BME280;37669;50.312;18.670;2022-12-05T18:28:35;49648.69;;;-145.86;89.74
51585;BME280;37669;50.312;18.670;2022-12-05T18:31:07;49650.66;;;-145.86;89.31
51585;BME280;37669;50.312;18.670;2022-12-05T18:33:34;49646.72;;;-145.86;89.49
51585;BME280;37669;50.312;18.670;2022-12-05T18:36:06;49668.50;;;-145.86;89.78
51585;BME280;37669;50.312;18.670;2022-12-05T18:38:35;49632.84;;;-145.86;89.99
51585;BME280;37669;50.312;18.670;2022-12-05T18:41:03;49634.81;;;-145.86;89.95
51585;BME280;37669;50.312;18.670;2022-12-05T18:43:31;49646.72;;;-145.86;89.80
51585;BME280;37669;50.312;18.670;2022-12-05T18:46:00;49690.28;;;-145.86;89.89
51585;BME280;37669;50.312;18.670;2022-12-05T18:48:29;49654.63;;;-145.86;89.58
51585;BME280;37669;50.312;18.670;2022-12-05T18:51:06;49682.34;;;-145.86;89.68
51585;BME280;37669;50.312;18.670;2022-12-05T18:53:33;49650.66;;;-145.86;89.74
51585;BME280;37669;50.312;18.670;2022-12-05T18:56:03;49601.16;;;-145.86;90.14
51585;BME280;37669;50.312;18.670;2022-12-05T18:58:31;49686.31;;;-145.86;90.20
51585;BME280;37669;50.312;18.670;2022-12-05T19:01:03;49662.56;;;-145.86;90.06
51585;BME280;37669;50.312;18.670;2022-12-05T19:03:32;49694.25;;;-145.86;90.21
51585;BME280;37669;50.312;18.670;2022-12-05T19:05:59;49704.16;;;-145.86;90.50
51585;BME280;37669;50.312;18.670;2022-12-05T19:08:27;49763.56;;;-145.86;90.19
51585;BME280;37669;50.312;18.670;2022-12-05T19:10:54;49692.25;;;-145.86;90.67
51585;BME280;37669;50.312;18.670;2022-12-05T19:13:22;49761.56;;;-145.86;90.84
51585;BME280;37669;50.312;18.670;2022-12-05T19:15:49;49749.69;;;-145.86;90.72
51585;BME280;37669;50.312;18.670;2022-12-05T19:18:16;49745.72;;;-145.86;91.02
51585;BME280;37669;50.312;18.670;2022-12-05T19:20:51;49761.56;;;-145.86;90.75
51585;BME280;37669;50.312;18.670;2022-12-05T19:23:18;49723.94;;;-145.86;90.77
51585;BME280;37669;50.312;18.670;2022-12-05T19:25:45;49733.84;;;-145.86;91.21
51585;BME280;37669;50.312;18.670;2022-12-05T19:28:12;49737.81;;;-145.86;91.29
51585;BME280;37669;50.312;18.670;2022-12-05T19:30:41;49727.91;;;-145.86;91.34
51585;BME280;37669;50.312;18.670;2022-12-05T19:33:08;49761.56;;;-145.86;91.27
51585;BME280;37669;50.312;18.670;2022-12-05T19:35:35;49718.00;;;-145.86;91.82
51585;BME280;37669;50.312;18.670;2022-12-05T19:38:05;49735.84;;;-145.86;91.50
51585;BME280;37669;50.312;18.670;2022-12-05T19:40:32;49743.75;;;-145.86;91.58
51585;BME280;37669;50.312;18.670;2022-12-05T19:42:59;49779.41;;;-145.86;92.12
51585;BME280;37669;50.312;18.670;2022-12-05T19:45:28;49801.19;;;-145.86;92.21
51585;BME280;37669;50.312;18.670;2022-12-05T19:47:56;49803.16;;;-145.86;92.13
51585;BME280;37669;50.312;18.670;2022-12-05T19:50:23;49824.97;;;-145.86;92.61